Terminal Aerodrome Forecast
Issued by NWS Sterling, VA

Current Version | Previous Version | Graphics & Text | Print | Product List | Glossary On
Versions: 1 2 3 4 5 6 7 8 9 10 11 12
000
FTUS41 KLWX 261700
TAFMRB
TAF
KMRB 261739Z 2618/2718 15006KT P6SM FEW050 FEW250
     FM270600 00000KT 5SM BR FEW250
     FM271200 00000KT P6SM FEW250
     FM271500 VRB03KT P6SM SCT050=

USA.gov is the U.S. government's official web portal to all federal, state and local government web resources and services.